createdAt,value
2017-06-13T00:00:11.742Z,16.36
2017-06-13T00:01:11.967Z,16.41
2017-06-13T00:02:11.697Z,16.37
2017-06-13T00:03:11.683Z,16.44
2017-06-13T00:04:11.364Z,16.3
2017-06-13T00:05:11.645Z,16.44
2017-06-13T00:06:11.672Z,16.32
2017-06-13T00:07:11.600Z,16.4
2017-06-13T00:08:11.587Z,16.44
2017-06-13T00:09:11.865Z,16.42
2017-06-13T00:10:11.540Z,16.37
2017-06-13T00:11:11.514Z,16.44
2017-06-13T00:12:10.895Z,16.45
2017-06-13T00:13:11.482Z,16.44
2017-06-13T00:14:11.455Z,16.41
2017-06-13T00:15:11.434Z,16.47
2017-06-13T00:16:11.418Z,16.47
2017-06-13T00:17:11.396Z,16.37
2017-06-13T00:18:11.376Z,16.47
2017-06-13T00:19:11.409Z,16.47
2017-06-13T00:20:11.337Z,16.48
2017-06-13T00:21:11.314Z,16.4
2017-06-13T00:22:11.293Z,16.44
2017-06-13T00:23:11.269Z,16.5
2017-06-13T00:24:11.250Z,16.44
2017-06-13T00:25:11.286Z,16.37
2017-06-13T00:26:11.211Z,16.44
2017-06-13T00:27:11.190Z,16.32
2017-06-13T00:28:11.172Z,16.33
2017-06-13T00:29:11.157Z,16.4
2017-06-13T00:30:11.124Z,16.42
2017-06-13T00:31:11.115Z,16.34
2017-06-13T00:32:10.783Z,16.48
2017-06-13T00:33:11.321Z,16.33
2017-06-13T00:34:11.097Z,16.3
2017-06-13T00:35:10.726Z,16.34
2017-06-13T00:36:11.017Z,16.29
2017-06-13T00:37:10.982Z,16.29
2017-06-13T00:38:10.963Z,16.32
2017-06-13T00:39:10.941Z,16.37
2017-06-13T00:40:10.921Z,16.32
2017-06-13T00:41:10.906Z,16.26
2017-06-13T00:42:10.288Z,16.23
2017-06-13T00:43:10.866Z,16.18
2017-06-13T00:44:10.841Z,16.27
2017-06-13T00:45:10.837Z,16.25
2017-06-13T00:46:10.801Z,16.25
2017-06-13T00:47:10.779Z,16.23
2017-06-13T00:48:10.757Z,16.26
2017-06-13T00:49:10.995Z,16.27
2017-06-13T00:50:10.717Z,16.26
2017-06-13T00:51:10.696Z,16.27
2017-06-13T00:52:10.673Z,16.25
2017-06-13T00:53:10.659Z,16.18
2017-06-13T00:54:10.649Z,16.22
2017-06-13T00:55:10.679Z,16.18
2017-06-13T00:56:10.594Z,16.26
2017-06-13T00:57:10.574Z,16.22
2017-06-13T00:58:10.553Z,16.18
2017-06-13T00:59:10.537Z,16.16
2017-06-13T01:00:10.517Z,16.23
2017-06-13T01:01:10.493Z,16.25
2017-06-13T01:02:10.176Z,16.26
2017-06-13T01:03:10.458Z,16.22
2017-06-13T01:04:10.166Z,16.26
2017-06-13T01:05:10.417Z,16.26
2017-06-13T01:06:10.089Z,16.14
2017-06-13T01:07:10.377Z,16.26
2017-06-13T01:08:10.357Z,16.26
2017-06-13T01:09:10.334Z,16.14
2017-06-13T01:10:10.315Z,16.23
2017-06-13T01:11:10.284Z,16.26
2017-06-13T01:12:10.268Z,16.23
2017-06-13T01:13:09.948Z,16.23
2017-06-13T01:14:09.974Z,16.14
2017-06-13T01:15:10.210Z,16.29
2017-06-13T01:16:10.186Z,16.16
2017-06-13T01:17:10.166Z,16.18
2017-06-13T01:18:10.143Z,16.29
2017-06-13T01:19:10.120Z,16.17
2017-06-13T01:20:10.112Z,16.07
2017-06-13T01:21:10.336Z,16.07
2017-06-13T01:22:09.764Z,16.08
2017-06-13T01:23:10.044Z,16.08
2017-06-13T01:24:10.027Z,16.07
2017-06-13T01:25:09.997Z,16.1
2017-06-13T01:26:09.984Z,16.16
2017-06-13T01:27:09.956Z,16.1
2017-06-13T01:28:09.943Z,16.17
2017-06-13T01:29:09.618Z,16.22
2017-06-13T01:30:09.900Z,16.22
2017-06-13T01:31:09.875Z,16.06
2017-06-13T01:32:09.856Z,16.14
2017-06-13T01:33:09.841Z,16.1
2017-06-13T01:34:09.818Z,16.07
2017-06-13T01:35:09.808Z,16.08
2017-06-13T01:36:09.775Z,16.1
2017-06-13T01:37:09.458Z,16.07
2017-06-13T01:38:09.733Z,16.13
2017-06-13T01:39:09.710Z,16.04
2017-06-13T01:40:09.694Z,16.1
2017-06-13T01:41:09.677Z,16.1
2017-06-13T01:42:09.655Z,16.1
2017-06-13T01:43:09.627Z,16.1
2017-06-13T01:44:09.618Z,16.06
2017-06-13T01:45:09.597Z,16.11
2017-06-13T01:46:09.565Z,16.04
2017-06-13T01:47:09.551Z,16.07
2017-06-13T01:48:09.530Z,16.13
2017-06-13T01:49:09.549Z,16.08
2017-06-13T01:50:09.490Z,16.07
2017-06-13T01:51:09.495Z,15.92
2017-06-13T01:52:09.443Z,15.96
2017-06-13T01:53:09.429Z,16.01
2017-06-13T01:54:09.401Z,15.98
2017-06-13T01:55:09.388Z,15.98
2017-06-13T01:56:09.417Z,15.96
2017-06-13T01:57:09.344Z,15.96
2017-06-13T01:58:09.328Z,15.96
2017-06-13T01:59:09.300Z,15.99
2017-06-13T02:00:09.281Z,15.95
2017-06-13T02:01:09.271Z,15.96
2017-06-13T02:02:09.241Z,15.99
2017-06-13T02:03:09.219Z,15.93
2017-06-13T02:04:09.208Z,15.98
2017-06-13T02:05:09.196Z,15.95
2017-06-13T02:06:09.161Z,15.96
2017-06-13T02:07:09.146Z,15.91
2017-06-13T02:08:09.174Z,15.98
2017-06-13T02:09:09.095Z,15.95
2017-06-13T02:10:09.088Z,15.93
2017-06-13T02:11:09.051Z,16.03
2017-06-13T02:12:09.339Z,15.95
2017-06-13T02:13:08.714Z,15.96
2017-06-13T02:14:08.697Z,15.96
2017-06-13T02:15:08.678Z,15.95
2017-06-13T02:16:08.954Z,15.92
2017-06-13T02:17:08.930Z,15.96
2017-06-13T02:18:08.913Z,15.98
2017-06-13T02:19:08.893Z,16.01
2017-06-13T02:20:08.868Z,15.92
2017-06-13T02:21:08.852Z,15.95
2017-06-13T02:22:08.522Z,15.92
2017-06-13T02:23:08.809Z,15.96
2017-06-13T02:24:08.787Z,15.99
2017-06-13T02:25:08.779Z,15.93
2017-06-13T02:26:08.743Z,15.95
2017-06-13T02:27:08.725Z,15.96
2017-06-13T02:28:08.703Z,15.96
2017-06-13T02:29:08.689Z,15.96
2017-06-13T02:30:08.120Z,16.03
2017-06-13T02:31:08.645Z,15.95
2017-06-13T02:32:08.626Z,15.95
2017-06-13T02:33:08.604Z,16.01
2017-06-13T02:34:08.581Z,15.95
2017-06-13T02:35:08.258Z,15.92
2017-06-13T02:36:08.541Z,15.96
2017-06-13T02:37:08.521Z,15.99
2017-06-13T02:38:08.193Z,15.99
2017-06-13T02:39:08.481Z,15.93
2017-06-13T02:40:08.456Z,15.98
2017-06-13T02:41:08.495Z,15.95
2017-06-13T02:42:08.422Z,16.01
2017-06-13T02:43:07.794Z,15.96
2017-06-13T02:44:08.073Z,15.88
2017-06-13T02:45:08.355Z,15.98
2017-06-13T02:46:08.334Z,15.92
2017-06-13T02:47:08.313Z,15.92
2017-06-13T02:48:08.290Z,15.93
2017-06-13T02:49:08.270Z,15.98
2017-06-13T02:50:08.252Z,15.91
2017-06-13T02:51:08.237Z,15.89
2017-06-13T02:52:08.260Z,15.99
2017-06-13T02:53:08.192Z,15.99
2017-06-13T02:54:08.168Z,15.92
2017-06-13T02:55:08.205Z,15.98
2017-06-13T02:56:08.127Z,15.98
2017-06-13T02:57:08.109Z,15.88
2017-06-13T02:58:08.091Z,15.98
2017-06-13T02:59:07.818Z,15.96
2017-06-13T03:00:08.039Z,15.88
2017-06-13T03:01:08.028Z,15.93
2017-06-13T03:02:08.005Z,16.03
2017-06-13T03:03:07.988Z,15.88
2017-06-13T03:04:07.965Z,15.99
2017-06-13T03:05:07.999Z,15.88
2017-06-13T03:06:07.932Z,15.88
2017-06-13T03:07:07.900Z,15.96
2017-06-13T03:08:07.882Z,15.84
2017-06-13T03:09:07.864Z,15.92
2017-06-13T03:10:07.836Z,15.99
2017-06-13T03:11:07.870Z,16.01
2017-06-13T03:12:07.798Z,15.86
2017-06-13T03:13:07.781Z,15.85
2017-06-13T03:14:07.758Z,15.89
2017-06-13T03:15:07.737Z,15.89
2017-06-13T03:16:07.760Z,15.86
2017-06-13T03:17:07.696Z,15.89
2017-06-13T03:18:07.674Z,15.84
2017-06-13T03:19:07.354Z,15.95
2017-06-13T03:20:07.331Z,15.88
2017-06-13T03:21:07.614Z,15.96
2017-06-13T03:22:07.593Z,15.92
2017-06-13T03:23:07.571Z,16.03
2017-06-13T03:24:07.552Z,15.98
2017-06-13T03:25:07.528Z,16.01
2017-06-13T03:26:07.566Z,16.01
2017-06-13T03:27:07.486Z,15.99
2017-06-13T03:28:07.473Z,15.96
2017-06-13T03:29:07.448Z,15.95
2017-06-13T03:30:07.422Z,16.1
2017-06-13T03:31:07.411Z,15.92
2017-06-13T03:32:07.639Z,15.95
2017-06-13T03:33:07.365Z,16.01
2017-06-13T03:34:07.352Z,15.99
2017-06-13T03:35:07.327Z,16.08
2017-06-13T03:36:07.307Z,16.08
2017-06-13T03:37:06.984Z,16.14
2017-06-13T03:38:07.267Z,16.13
2017-06-13T03:39:07.239Z,16.06
2017-06-13T03:40:07.220Z,15.98
2017-06-13T03:41:07.452Z,16.07
2017-06-13T03:42:07.203Z,16.08
2017-06-13T03:43:07.163Z,16.13
2017-06-13T03:44:07.147Z,16.07
2017-06-13T03:45:07.116Z,16.07
2017-06-13T03:46:07.100Z,15.98
2017-06-13T03:47:07.078Z,16.07
2017-06-13T03:48:07.061Z,16.06
2017-06-13T03:49:07.040Z,16.03
2017-06-13T03:50:07.022Z,16.07
2017-06-13T03:51:07.001Z,16.06
2017-06-13T03:52:06.973Z,16.07
2017-06-13T03:53:06.955Z,16.04
2017-06-13T03:54:06.942Z,16.11
2017-06-13T03:55:06.915Z,16.11
2017-06-13T03:56:06.895Z,16.11
2017-06-13T03:57:06.870Z,16.11
2017-06-13T03:58:06.847Z,16.04
2017-06-13T03:59:06.839Z,16.11
2017-06-13T04:00:06.859Z,16.25
2017-06-13T04:01:06.798Z,16.18
2017-06-13T04:02:06.470Z,16.17
2017-06-13T04:03:06.750Z,16.22
2017-06-13T04:04:06.731Z,16.25
2017-06-13T04:05:06.710Z,16.22
2017-06-13T04:06:06.692Z,16.23
2017-06-13T04:07:06.674Z,16.14
2017-06-13T04:08:06.649Z,16.23
2017-06-13T04:09:06.625Z,16.17
2017-06-13T04:10:06.610Z,16.29
2017-06-13T04:11:06.637Z,16.44
2017-06-13T04:12:06.563Z,16.67
2017-06-13T04:13:06.540Z,16.77
2017-06-13T04:14:06.527Z,16.88
2017-06-13T04:15:06.502Z,16.99
2017-06-13T04:16:06.491Z,17.1
2017-06-13T04:17:06.467Z,17.24
2017-06-13T04:18:06.448Z,17.3
2017-06-13T04:19:06.430Z,17.57
2017-06-13T04:20:06.403Z,17.68
2017-06-13T04:21:06.400Z,17.71
2017-06-13T04:22:06.364Z,17.65
2017-06-13T04:23:06.350Z,17.58
2017-06-13T04:24:06.325Z,17.62
2017-06-13T04:25:06.314Z,17.49
2017-06-13T04:26:06.287Z,17.49
2017-06-13T04:27:06.264Z,17.45
2017-06-13T04:28:06.245Z,17.49
2017-06-13T04:29:06.236Z,17.73
2017-06-13T04:30:06.208Z,17.89
2017-06-13T04:31:06.251Z,17.95
2017-06-13T04:32:06.285Z,18.09
2017-06-13T04:33:06.156Z,18.28
2017-06-13T04:34:06.130Z,18.39
2017-06-13T04:35:06.142Z,18.49
2017-06-13T04:36:06.086Z,18.54
2017-06-13T04:37:06.077Z,18.64
2017-06-13T04:38:05.760Z,18.6
2017-06-13T04:39:06.037Z,18.5
2017-06-13T04:40:06.027Z,18.49
2017-06-13T04:41:06.004Z,18.38
2017-06-13T04:42:05.976Z,18.28
2017-06-13T04:43:05.960Z,18.31
2017-06-13T04:44:05.637Z,18.42
2017-06-13T04:45:05.922Z,18.5
2017-06-13T04:46:05.907Z,18.62
2017-06-13T04:47:05.903Z,18.76
2017-06-13T04:48:05.870Z,18.74
2017-06-13T04:49:05.849Z,18.97
2017-06-13T04:50:05.830Z,19.05
2017-06-13T04:51:05.216Z,19.2
2017-06-13T04:52:05.797Z,19.13
2017-06-13T04:53:05.774Z,19.34
2017-06-13T04:54:05.755Z,19.52
2017-06-13T04:55:05.759Z,19.65
2017-06-13T04:56:05.720Z,19.7
2017-06-13T04:57:05.702Z,19.79
2017-06-13T04:58:05.730Z,19.82
2017-06-13T04:59:05.369Z,19.8
2017-06-13T05:00:05.650Z,19.83
2017-06-13T05:01:05.652Z,19.98
2017-06-13T05:02:05.613Z,19.95
2017-06-13T05:03:05.607Z,20.05
2017-06-13T05:04:05.594Z,20.2
2017-06-13T05:05:05.563Z,20.16
2017-06-13T05:06:05.566Z,20.25
2017-06-13T05:07:05.529Z,20.48
2017-06-13T05:08:05.508Z,20.68
2017-06-13T05:09:05.524Z,20.79
2017-06-13T05:10:05.481Z,20.85
2017-06-13T05:11:05.470Z,21
2017-06-13T05:12:05.487Z,20.93
2017-06-13T05:13:05.429Z,21.09
2017-06-13T05:14:05.412Z,21.13
2017-06-13T05:15:05.084Z,21.22
2017-06-13T05:16:05.380Z,21.13
2017-06-13T05:17:05.368Z,21.13
2017-06-13T05:18:05.341Z,21.06
2017-06-13T05:19:05.326Z,21.15
2017-06-13T05:20:05.001Z,21.11
2017-06-13T05:21:05.290Z,21.11
2017-06-13T05:22:05.271Z,21.21
2017-06-13T05:23:05.260Z,21.27
2017-06-13T05:24:05.238Z,21.28
2017-06-13T05:25:05.226Z,21.24
2017-06-13T05:26:05.205Z,21.37
2017-06-13T05:27:05.194Z,21.4
2017-06-13T05:28:05.180Z,21.53
2017-06-13T05:29:05.158Z,21.66
2017-06-13T05:30:05.143Z,21.58
2017-06-13T05:31:04.830Z,21.55
2017-06-13T05:32:05.113Z,21.42
2017-06-13T05:33:05.110Z,21.4
2017-06-13T05:34:05.090Z,21.34
2017-06-13T05:35:05.067Z,21.26
2017-06-13T05:36:05.058Z,21.38
2017-06-13T05:37:04.732Z,21.45
2017-06-13T05:38:05.019Z,21.43
2017-06-13T05:39:05.006Z,21.52
2017-06-13T05:40:04.982Z,21.51
2017-06-13T05:41:04.678Z,21.53
2017-06-13T05:42:04.654Z,21.7
2017-06-13T05:43:04.945Z,21.74
2017-06-13T05:44:04.934Z,21.66
2017-06-13T05:45:04.911Z,21.61
2017-06-13T05:46:04.601Z,21.73
2017-06-13T05:47:04.580Z,21.85
2017-06-13T05:48:04.865Z,22.08
2017-06-13T05:49:04.847Z,22.23
2017-06-13T05:50:04.835Z,22.29
2017-06-13T05:51:04.825Z,22.29
2017-06-13T05:52:04.812Z,22.27
2017-06-13T05:53:04.799Z,22.41
2017-06-13T05:54:04.771Z,22.42
2017-06-13T05:55:04.767Z,22.38
2017-06-13T05:56:04.750Z,22.44
2017-06-13T05:57:04.738Z,22.3
2017-06-13T05:58:04.413Z,22.19
2017-06-13T05:59:04.756Z,22.17
2017-06-13T06:00:04.711Z,22.02
2017-06-13T06:01:04.670Z,22.02
2017-06-13T06:02:04.662Z,22.08
2017-06-13T06:03:04.341Z,22.24
2017-06-13T06:04:04.631Z,22.35
2017-06-13T06:05:04.619Z,22.44
2017-06-13T06:06:04.654Z,22.63
2017-06-13T06:07:04.633Z,22.56
2017-06-13T06:08:04.574Z,22.72
2017-06-13T06:09:04.555Z,22.57
2017-06-13T06:10:04.593Z,22.45
2017-06-13T06:11:04.533Z,22.27
2017-06-13T06:12:04.515Z,22.08
2017-06-13T06:13:04.499Z,21.9
2017-06-13T06:14:04.487Z,21.79
2017-06-13T06:15:04.503Z,22.05
2017-06-13T06:16:04.463Z,22.09
2017-06-13T06:17:04.469Z,22.06
2017-06-13T06:18:04.426Z,22.23
2017-06-13T06:19:04.414Z,22.29
2017-06-13T06:20:04.402Z,22.45
2017-06-13T06:21:04.383Z,22.63
2017-06-13T06:22:04.369Z,22.82
2017-06-13T06:23:04.357Z,23.06
2017-06-13T06:24:04.347Z,23.14
2017-06-13T06:25:04.330Z,23.32
2017-06-13T06:26:04.317Z,23.47
2017-06-13T06:27:04.352Z,23.41
2017-06-13T06:28:04.589Z,23.18
2017-06-13T06:29:04.262Z,22.85
2017-06-13T06:30:04.261Z,22.69
2017-06-13T06:31:04.246Z,22.54
2017-06-13T06:32:04.238Z,22.54
2017-06-13T06:33:04.220Z,22.64
2017-06-13T06:34:04.205Z,22.85
2017-06-13T06:35:04.188Z,22.97
2017-06-13T06:36:04.171Z,23.12
2017-06-13T06:37:04.161Z,23.23
2017-06-13T06:38:04.154Z,23.39
2017-06-13T06:39:04.131Z,23.81
2017-06-13T06:40:04.124Z,24.14
2017-06-13T06:41:04.119Z,24.31
2017-06-13T06:42:04.101Z,24.18
2017-06-13T06:43:04.075Z,24.14
2017-06-13T06:44:04.067Z,24.12
2017-06-13T06:45:04.057Z,24.23
2017-06-13T06:46:04.046Z,24.46
2017-06-13T06:47:04.032Z,24.27
2017-06-13T06:48:04.026Z,24.24
2017-06-13T06:49:04.008Z,24.26
2017-06-13T06:50:03.994Z,24.09
2017-06-13T06:51:03.983Z,24.08
2017-06-13T06:52:03.975Z,23.92
2017-06-13T06:53:03.960Z,24.09
2017-06-13T06:54:03.945Z,24.09
2017-06-13T06:55:03.930Z,24.05
2017-06-13T06:56:03.918Z,23.87
2017-06-13T06:57:03.952Z,23.67
2017-06-13T06:58:03.900Z,23.25
2017-06-13T06:59:03.579Z,23.14
2017-06-13T07:00:03.868Z,23.07
2017-06-13T07:01:03.854Z,22.89
2017-06-13T07:02:03.837Z,22.76
2017-06-13T07:03:03.830Z,22.54
2017-06-13T07:04:03.513Z,22.39
2017-06-13T07:05:03.791Z,22.17
2017-06-13T07:06:03.789Z,21.9
2017-06-13T07:07:03.768Z,21.82
2017-06-13T07:08:03.754Z,21.83
2017-06-13T07:09:03.742Z,21.99
2017-06-13T07:10:03.724Z,22.01
2017-06-13T07:11:03.723Z,22.02
2017-06-13T07:12:03.689Z,22.12
2017-06-13T07:13:03.669Z,22.56
2017-06-13T07:14:03.682Z,22.86
2017-06-13T07:15:03.645Z,23.11
2017-06-13T07:16:03.630Z,23.26
2017-06-13T07:17:03.616Z,23.44
2017-06-13T07:18:03.606Z,23.14
2017-06-13T07:19:03.583Z,23.21
2017-06-13T07:20:03.624Z,23.06
2017-06-13T07:21:03.561Z,22.97
2017-06-13T07:22:03.549Z,22.86
2017-06-13T07:23:03.554Z,22.84
2017-06-13T07:24:03.518Z,22.82
2017-06-13T07:25:03.506Z,23.06
2017-06-13T07:26:03.492Z,23.16
2017-06-13T07:27:03.473Z,23.26
2017-06-13T07:28:03.462Z,23.11
2017-06-13T07:29:03.445Z,23.12
2017-06-13T07:30:18.039Z,23.56
2017-06-13T07:31:03.418Z,23.68
2017-06-13T07:32:03.414Z,23.71
2017-06-13T07:33:03.449Z,23.84
2017-06-13T07:34:03.420Z,24
2017-06-13T07:35:03.365Z,24.09
2017-06-13T07:36:03.060Z,23.94
2017-06-13T07:37:03.342Z,23.68
2017-06-13T07:38:03.025Z,23.37
2017-06-13T07:39:03.316Z,23.12
2017-06-13T07:40:03.292Z,22.89
2017-06-13T07:41:03.280Z,22.78
2017-06-13T07:42:03.266Z,22.54
2017-06-13T07:43:03.256Z,22.33
2017-06-13T07:44:03.238Z,22.01
2017-06-13T07:45:03.231Z,21.74
2017-06-13T07:46:03.206Z,21.52
2017-06-13T07:47:02.886Z,21.33
2017-06-13T07:48:03.177Z,21.27
2017-06-13T07:49:02.860Z,21.03
2017-06-13T07:50:03.192Z,20.96
2017-06-13T07:51:03.131Z,20.91
2017-06-13T07:52:03.121Z,20.72
2017-06-13T07:53:03.099Z,20.72
2017-06-13T07:54:03.084Z,20.54
2017-06-13T07:55:03.059Z,20.44
2017-06-13T07:56:03.052Z,20.34
2017-06-13T07:57:03.027Z,20.5
2017-06-13T07:58:03.019Z,20.88
2017-06-13T07:59:02.996Z,21.45
2017-06-13T08:00:02.982Z,21.79
2017-06-13T08:01:02.964Z,21.98
2017-06-13T08:02:02.947Z,21.91
2017-06-13T08:03:02.929Z,21.89
2017-06-13T08:04:02.924Z,21.71
2017-06-13T08:05:02.901Z,21.45
2017-06-13T08:06:02.884Z,21.15
2017-06-13T08:07:02.866Z,20.96
2017-06-13T08:08:02.847Z,20.93
2017-06-13T08:09:02.832Z,20.69
2017-06-13T08:10:02.813Z,20.54
2017-06-13T08:11:02.797Z,20.31
2017-06-13T08:12:02.794Z,20.17
2017-06-13T08:13:02.765Z,20.13
2017-06-13T08:14:02.745Z,20.1
2017-06-13T08:15:02.730Z,20.04
2017-06-13T08:16:02.708Z,20.04
2017-06-13T08:17:02.700Z,20.17
2017-06-13T08:18:02.671Z,20.12
2017-06-13T08:19:02.656Z,20.15
2017-06-13T08:20:02.651Z,20.12
2017-06-13T08:21:02.621Z,20.1
2017-06-13T08:22:02.610Z,20.07
2017-06-13T08:23:02.589Z,20.12
2017-06-13T08:24:02.574Z,20.22
2017-06-13T08:25:02.255Z,20.27
2017-06-13T08:26:02.531Z,20.4
2017-06-13T08:27:02.768Z,20.57
2017-06-13T08:28:02.501Z,20.88
2017-06-13T08:29:02.483Z,21.38
2017-06-13T08:30:02.461Z,22.08
2017-06-13T08:31:02.445Z,22.49
2017-06-13T08:32:02.429Z,22.84
2017-06-13T08:33:02.412Z,22.86
2017-06-13T08:34:02.409Z,23
2017-06-13T08:35:02.388Z,23.07
2017-06-13T08:36:02.367Z,23.14
2017-06-13T08:37:02.355Z,23.22
2017-06-13T08:38:02.333Z,23.38
2017-06-13T08:39:02.320Z,23.34
2017-06-13T08:40:02.307Z,23.07
2017-06-13T08:41:02.285Z,22.85
2017-06-13T08:42:02.273Z,22.67
2017-06-13T08:43:02.254Z,22.36
2017-06-13T08:44:02.248Z,22.11
2017-06-13T08:45:02.228Z,21.75
2017-06-13T08:46:02.211Z,21.59
2017-06-13T08:47:02.196Z,21.53
2017-06-13T08:48:02.176Z,21.4
2017-06-13T08:49:02.161Z,21.26
2017-06-13T08:50:02.200Z,21.22
2017-06-13T08:51:02.133Z,21.11
2017-06-13T08:52:02.116Z,21.09
2017-06-13T08:53:02.146Z,20.96
2017-06-13T08:54:02.079Z,20.94
2017-06-13T08:55:02.059Z,20.9
2017-06-13T08:56:02.051Z,20.88
2017-06-13T08:57:02.030Z,20.94
2017-06-13T08:58:02.009Z,20.85
2017-06-13T08:59:01.989Z,20.88
2017-06-13T09:00:01.982Z,20.96
2017-06-13T09:01:01.963Z,21.13
2017-06-13T09:02:01.947Z,21.12
2017-06-13T09:03:01.920Z,21.12
2017-06-13T09:04:01.953Z,21.13
2017-06-13T09:05:01.890Z,21.11
2017-06-13T09:06:01.875Z,21.27
2017-06-13T09:07:01.863Z,21.11
2017-06-13T09:08:01.842Z,21.13
2017-06-13T09:09:01.823Z,21.24
2017-06-13T09:10:01.813Z,21.21
2017-06-13T09:11:01.842Z,21.26
2017-06-13T09:12:01.767Z,21.28
2017-06-13T09:13:01.764Z,21.24
2017-06-13T09:14:01.743Z,21.37
2017-06-13T09:15:01.732Z,21.52
2017-06-13T09:16:01.750Z,21.59
2017-06-13T09:17:01.685Z,21.73
2017-06-13T09:18:01.676Z,21.98
2017-06-13T09:19:01.655Z,22.02
2017-06-13T09:20:01.643Z,21.93
2017-06-13T09:21:01.622Z,22.02
2017-06-13T09:22:01.603Z,21.85
2017-06-13T09:23:01.639Z,21.77
2017-06-13T09:24:01.568Z,21.73
2017-06-13T09:25:01.553Z,21.67
2017-06-13T09:26:01.538Z,21.55
2017-06-13T09:27:01.523Z,21.55
2017-06-13T09:28:01.502Z,21.59
2017-06-13T09:29:01.498Z,21.73
2017-06-13T09:30:01.475Z,21.79
2017-06-13T09:31:01.450Z,21.67
2017-06-13T09:32:01.437Z,21.55
2017-06-13T09:33:01.421Z,21.64
2017-06-13T09:34:01.106Z,21.61
2017-06-13T09:35:01.390Z,21.73
2017-06-13T09:36:01.082Z,21.89
2017-06-13T09:37:01.358Z,21.98
2017-06-13T09:38:01.346Z,22.01
2017-06-13T09:39:01.320Z,22.06
2017-06-13T09:40:01.313Z,22.14
2017-06-13T09:41:01.292Z,22.17
2017-06-13T09:42:01.274Z,22.11
2017-06-13T09:43:01.255Z,22.15
2017-06-13T09:44:01.240Z,22.15
2017-06-13T09:45:01.275Z,22.14
2017-06-13T09:46:01.222Z,22.14
2017-06-13T09:47:01.202Z,22.08
2017-06-13T09:48:00.875Z,22.17
2017-06-13T09:49:01.166Z,22.29
2017-06-13T09:50:01.145Z,22.24
2017-06-13T09:51:01.126Z,22.27
2017-06-13T09:52:01.122Z,22.54
2017-06-13T09:53:01.097Z,22.82
2017-06-13T09:54:01.080Z,23.03
2017-06-13T09:55:01.075Z,23.06
2017-06-13T09:56:00.751Z,23.18
2017-06-13T09:57:01.038Z,23.38
2017-06-13T09:58:01.018Z,23.39
2017-06-13T09:59:01.010Z,23.35
2017-06-13T10:00:00.999Z,23.49
2017-06-13T10:01:00.980Z,23.5
2017-06-13T10:02:00.960Z,23.29
2017-06-13T10:03:00.947Z,23.38
2017-06-13T10:04:00.934Z,23.41
2017-06-13T10:05:00.914Z,23.19
2017-06-13T10:06:00.903Z,23.12
2017-06-13T10:07:00.886Z,22.81
2017-06-13T10:08:00.878Z,22.66
2017-06-13T10:09:00.866Z,22.6
2017-06-13T10:10:00.851Z,22.6
2017-06-13T10:11:00.829Z,22.63
2017-06-13T10:12:00.820Z,22.54
2017-06-13T10:13:00.805Z,22.44
2017-06-13T10:14:01.079Z,22.36
2017-06-13T10:15:00.768Z,22.21
2017-06-13T10:16:00.749Z,22.29
2017-06-13T10:17:00.736Z,22.27
2017-06-13T10:18:00.725Z,22.27
2017-06-13T10:19:00.701Z,22.33
2017-06-13T10:20:00.694Z,22.36
2017-06-13T10:21:00.677Z,22.26
2017-06-13T10:22:00.658Z,22.45
2017-06-13T10:23:00.641Z,22.81
2017-06-13T10:24:00.676Z,23.04
2017-06-13T10:25:00.614Z,23.16
2017-06-13T10:26:00.591Z,23.19
2017-06-13T10:27:00.583Z,23.38
2017-06-13T10:28:00.565Z,23.35
2017-06-13T10:29:00.552Z,23.37
2017-06-13T10:30:00.600Z,23.14
2017-06-13T10:31:00.521Z,23.19
2017-06-13T10:32:00.556Z,23.15
2017-06-13T10:33:00.484Z,22.99
2017-06-13T10:34:00.474Z,22.7
2017-06-13T10:35:00.452Z,22.52
2017-06-13T10:36:00.742Z,22.26
2017-06-13T10:37:00.434Z,22.08
2017-06-13T10:38:00.413Z,21.75
2017-06-13T10:39:00.399Z,21.61
2017-06-13T10:40:00.068Z,21.51
2017-06-13T10:41:00.362Z,21.22
2017-06-13T10:42:00.343Z,21.11
2017-06-13T10:43:00.332Z,21.09
2017-06-13T10:44:00.007Z,21
2017-06-13T10:44:59.988Z,21.01
2017-06-13T10:46:00.274Z,20.91
2017-06-13T10:47:00.258Z,20.87
2017-06-13T10:47:59.944Z,20.96
2017-06-13T10:49:00.227Z,20.88
2017-06-13T10:50:00.210Z,20.83
2017-06-13T10:51:00.193Z,20.91
2017-06-13T10:52:00.173Z,20.81
2017-06-13T10:53:00.164Z,20.91
2017-06-13T10:53:59.839Z,20.9
2017-06-13T10:55:00.120Z,20.98
2017-06-13T10:56:00.101Z,21.05
2017-06-13T10:57:00.088Z,21.01
2017-06-13T10:58:00.066Z,21.12
2017-06-13T10:59:00.058Z,21.12
2017-06-13T11:00:00.039Z,21.43
2017-06-13T11:01:00.018Z,21.49
2017-06-13T11:02:00.043Z,21.66
2017-06-13T11:03:00.282Z,21.73
2017-06-13T11:03:59.981Z,21.91
2017-06-13T11:04:59.946Z,21.82
2017-06-13T11:05:59.936Z,21.71
2017-06-13T11:06:59.909Z,21.74
2017-06-13T11:07:59.888Z,21.66
2017-06-13T11:08:59.882Z,21.51
2017-06-13T11:09:59.865Z,21.53
2017-06-13T11:10:59.851Z,21.49
2017-06-13T11:11:59.831Z,21.34
2017-06-13T11:12:59.811Z,21.43
2017-06-13T11:13:59.790Z,21.33
2017-06-13T11:14:59.495Z,21.36
2017-06-13T11:15:59.762Z,21.24
2017-06-13T11:16:59.745Z,21.26
2017-06-13T11:17:59.723Z,21.26
2017-06-13T11:18:59.715Z,21.08
2017-06-13T11:19:59.692Z,21.13
2017-06-13T11:20:59.669Z,21.26
2017-06-13T11:21:59.355Z,21.28
2017-06-13T11:22:59.341Z,21.33
2017-06-13T11:23:59.644Z,21.53
2017-06-13T11:24:59.619Z,21.59
2017-06-13T11:25:59.582Z,21.63
2017-06-13T11:26:59.574Z,21.74
2017-06-13T11:27:59.567Z,21.67
2017-06-13T11:28:59.544Z,21.71
2017-06-13T11:29:59.221Z,21.77
2017-06-13T11:30:59.502Z,21.75
2017-06-13T11:31:59.484Z,21.61
2017-06-13T11:32:59.517Z,21.55
2017-06-13T11:33:59.462Z,21.58
2017-06-13T11:34:59.434Z,21.53
2017-06-13T11:35:59.420Z,21.56
2017-06-13T11:36:59.399Z,21.55
2017-06-13T11:37:59.387Z,21.64
2017-06-13T11:38:59.366Z,21.53
2017-06-13T11:39:59.355Z,21.52
2017-06-13T11:40:59.332Z,21.67
2017-06-13T11:41:59.320Z,21.64
2017-06-13T11:42:59.300Z,21.63
2017-06-13T11:43:59.288Z,21.64
2017-06-13T11:44:59.258Z,21.58
2017-06-13T11:45:59.300Z,21.53
2017-06-13T11:46:59.231Z,21.67
2017-06-13T11:47:59.218Z,21.55
2017-06-13T11:48:59.199Z,21.63
2017-06-13T11:49:59.173Z,21.79
2017-06-13T11:50:59.212Z,21.86
2017-06-13T11:51:59.192Z,21.94
2017-06-13T11:52:59.139Z,22.08
2017-06-13T11:53:59.160Z,22.01
2017-06-13T11:54:59.159Z,21.98
2017-06-13T11:55:59.128Z,21.94
2017-06-13T11:56:59.065Z,21.96
2017-06-13T11:57:59.035Z,21.81
2017-06-13T11:58:59.026Z,21.89
2017-06-13T11:59:59.009Z,21.85
2017-06-13T12:00:59.005Z,21.91
2017-06-13T12:01:58.978Z,21.99
2017-06-13T12:02:58.953Z,21.93
2017-06-13T12:03:58.949Z,22.14
2017-06-13T12:04:58.929Z,22.17
2017-06-13T12:05:58.907Z,22.21
2017-06-13T12:06:58.942Z,22.19
2017-06-13T12:07:58.871Z,22.31
2017-06-13T12:08:58.556Z,22.26
2017-06-13T12:09:58.836Z,22.36
2017-06-13T12:10:58.831Z,22.51
2017-06-13T12:11:58.850Z,22.6
2017-06-13T12:12:58.793Z,22.76
2017-06-13T12:13:58.775Z,22.88
2017-06-13T12:14:58.755Z,23.01
2017-06-13T12:15:58.737Z,23.04
2017-06-13T12:16:58.758Z,23.03
2017-06-13T12:17:58.709Z,23.01
2017-06-13T12:18:58.697Z,22.93
2017-06-13T12:19:58.682Z,22.84
2017-06-13T12:20:58.762Z,22.85
2017-06-13T12:21:58.646Z,22.93
2017-06-13T12:22:58.636Z,22.89
2017-06-13T12:23:58.622Z,22.59
2017-06-13T12:24:58.604Z,22.46
2017-06-13T12:25:58.583Z,22.39
2017-06-13T12:26:58.570Z,22.26
2017-06-13T12:27:58.550Z,22.19
2017-06-13T12:28:58.238Z,22.12
2017-06-13T12:29:58.512Z,22.09
2017-06-13T12:30:58.495Z,21.91
2017-06-13T12:31:58.482Z,21.89
2017-06-13T12:32:58.458Z,21.82
2017-06-13T12:33:58.447Z,21.96
2017-06-13T12:34:58.434Z,22.04
2017-06-13T12:35:58.421Z,22.14
2017-06-13T12:36:58.415Z,22.06
2017-06-13T12:37:58.390Z,21.99
2017-06-13T12:38:58.382Z,21.94
2017-06-13T12:39:58.353Z,21.93
2017-06-13T12:40:58.338Z,21.85
2017-06-13T12:41:58.313Z,21.89
2017-06-13T12:42:58.004Z,21.9
2017-06-13T12:43:58.293Z,21.75
2017-06-13T12:44:58.260Z,21.59
2017-06-13T12:45:58.245Z,21.52
2017-06-13T12:46:58.484Z,21.49
2017-06-13T12:47:58.214Z,21.53
2017-06-13T12:48:58.195Z,21.49
2017-06-13T12:49:58.181Z,21.4
2017-06-13T12:50:58.166Z,21.38
2017-06-13T12:51:58.137Z,21.34
2017-06-13T12:52:58.340Z,21.28
2017-06-13T12:53:58.158Z,21.19